dimanche 2 février 2014

ALERTE SPOTTING 02/02/14

320 F-HBNF Air France
    vols TO
744 Ec-KQC Pullmantur Air
   P¨LM6121/PLM710P  08h50/10h50

IL9 CU-T1250 Cubana
   CU444/CU445  14h07/16h30

73H CN-RGN RAM (sticker 50th 737)
   dpt AT657 13h40
   AT656/AT8141  20h55/21h45

32A G-EZWO easyJet
   U24270/U24295  18h05/18h35
  arv night stop U24296 22h25

320 F-HDMF Air Corsica (cyclistes)
   XK4517/XK4504   20h00/21h00

 Manque les prévisions/immats Air Europa / Flybe / certains Air Algérie
*** Heures en Local Time / prévisions soumises
 à modifications de dernières minutes ***

le TAF de la journée



METAR: LFPO 020330Z 21010KT CAVOK 02/01 Q1009 NOSIG=

TAF LONG: LFPO 012300Z 0200/0306 21008KT CAVOK BECMG 0202/0204 SCT006
PROB40 TEMPO 0205/0209 3000 BR BKN003 BECMG 0209/0212 BKN020 BECMG
0212/0214 SCT035 PROB30 TEMPO 0213/0217 -SHRA BKN035TCU BECMG
0220/0222 16008KT 3000 BR BKN004 PROB30 TEMPO 0302/0306 0500 BCFG



Les logs des jours précédents :
 http://www.airkalo.com/ORLYAVIATION/Logdumois.html